Aérodrome :
LOGIN :

S'inscrire | Disclaimer

   EN    FR    IT 

 










Légende :    VFR   VFR Marginal   IFR   IFR Intensif   IFR Très Intensif
Visi : 
Plafond : 
>= 8 km
>= 3000ft
5 à 8 km
1000 à 3000 ft
1500m à 5 km
500 à 1000 ft
800 à 1500m
200 à 500 ft
< 800m
< 200 ft
Symboles :   Orages  Brouillard  Fortes neiges  Fortes précipitations  Vent > 20 kt
SIGMETs :   Divers  Orages  Givrage  Turbulence  Onde Orograph.  Cendres Volcan.







- Altitude de l'aérodrome : 102 ft
- Code IATA : CNG
- Voir les cartes d'approche


LFBG - Cognac

DERNIER METAR :
  • 231000Z AUTO 15007KT 120V180 9999 BKN011 BKN016 OVC029 07/05 Q1009 BECMG SCT014 BKN040

METARs EXPIRÉS :
  • 230930Z AUTO 14006KT 9999 SCT008 BKN032 OVC041 07/05 Q1009 NOSIG
  • 230900Z AUTO 14006KT 9999 -DZ SCT008 BKN030 BKN036 07/05 Q1009 NOSIG
  • 230830Z AUTO 14005KT 9999 -DZ FEW008 SCT029 BKN054 06/04 Q1009 NOSIG
  • 230800Z AUTO 14005KT 9999 -RA FEW041 OVC056 06/04 Q1008 BECMG RA BKN010 BKN030
  • 230730Z AUTO 15004KT 9999 -RA BKN047 OVC064 06/04 Q1008 BECMG RA BKN010 BKN030

TAF TAF LFBG
Valide du 23 à 09h jusqu'au 24 à 09h UTC


230800Z 2309/2409 15006KT 9999 SCT008 BKN040
BECMG 2310/2312 23008KT BKN015 BKN040
TEMPO 2314/2318 23015G25KT 4000 SHRA BKN015 BKN040
Pas de NOTAMs connus pour ce terrain.



MET'MAP, la Météo Aéronautique d'un coup d'oeil ! - Copyright ORBIFLY Décembre 2007 - Disclaimer

ORBIFLY MET'MAP TEAM :

Programmation & Développement : Alexandra Zaïnal
Conception & Développement : Baudouin d'Aumeries
Co-Programmation & Développement : Marc-Olivier Méhu
Soutien technique & logistique : Manuel Goepfert

Contact : metmap@orbifly.com




SOURCES & CREDITS :

   NOAA